Time;durP1;ratioP1;P1;durP2;ratioP2;P2;SDS_P1;SDS_P2;PMS_P1;PMS_P2;Temp;Humidity;BMP_temperature;BMP_pressure;BME280_temperature;BME280_humidity;BME280_pressure;Samples;Min_cycle;Max_cycle;Signal;HPM_P1;HPM_P2
2021/08/05 00:00:11;;;;;;;4.10;3.80;;;;;;;14.52;100.00;97614.47;5099964;28;20313;-76
2021/08/05 00:02:39;;;;;;;4.57;4.27;;;;;;;14.49;100.00;97613.03;5099970;28;20201;-76
2021/08/05 00:05:10;;;;;;;4.97;4.57;;;;;;;14.54;100.00;97615.09;5093592;27;20967;-75
2021/08/05 00:07:38;;;;;;;4.10;3.80;;;;;;;14.51;100.00;97618.16;5100928;28;20225;-76
2021/08/05 00:10:06;;;;;;;4.03;3.83;;;;;;;14.47;100.00;97615.91;5096918;28;20213;-77
2021/08/05 00:12:34;;;;;;;4.40;4.00;;;;;;;14.39;100.00;97615.25;5100231;28;20197;-77
2021/08/05 00:15:02;;;;;;;5.00;3.90;;;;;;;14.30;100.00;97614.59;5098279;28;20205;-77
2021/08/05 00:17:30;;;;;;;4.43;4.13;;;;;;;14.28;100.00;97611.31;5099123;28;20213;-77
2021/08/05 00:19:58;;;;;;;5.50;4.97;;;;;;;14.24;100.00;97607.41;5100461;27;20201;-77
2021/08/05 00:22:27;;;;;;;4.70;4.30;;;;;;;14.16;100.00;97611.03;5101173;28;20201;-77
2021/08/05 00:24:55;;;;;;;4.93;4.63;;;;;;;14.23;100.00;97619.88;5097084;28;20315;-77
2021/08/05 00:27:23;;;;;;;5.30;4.87;;;;;;;14.14;100.00;97605.09;5096813;28;20233;-77
2021/08/05 00:29:51;;;;;;;4.97;4.67;;;;;;;14.13;100.00;97614.09;5096501;28;21010;-78
2021/08/05 00:32:19;;;;;;;4.20;3.90;;;;;;;14.11;100.00;97616.13;5099573;28;20233;-78
2021/08/05 00:34:47;;;;;;;4.73;4.43;;;;;;;14.03;100.00;97611.78;5097033;28;20240;-78
2021/08/05 00:37:15;;;;;;;4.77;4.37;;;;;;;14.08;100.00;97612.00;5100460;28;20225;-77
2021/08/05 00:39:44;;;;;;;5.17;4.77;;;;;;;13.96;100.00;97609.06;5098078;28;20211;-78
2021/08/05 00:42:12;;;;;;;4.90;4.50;;;;;;;13.92;100.00;97613.13;5099109;28;20201;-77
2021/08/05 00:44:40;;;;;;;5.60;5.20;;;;;;;13.96;100.00;97611.72;5101660;28;20276;-78
2021/08/05 00:47:08;;;;;;;5.03;4.73;;;;;;;13.96;100.00;97614.38;5093815;28;20224;-78
2021/08/05 00:49:36;;;;;;;5.27;4.87;;;;;;;13.98;100.00;97608.88;5100220;28;20217;-78
2021/08/05 00:52:05;;;;;;;5.30;4.80;;;;;;;13.95;100.00;97603.94;5099490;28;20243;-77
2021/08/05 00:54:33;;;;;;;5.87;5.30;;;;;;;13.97;100.00;97604.56;5100105;28;20249;-77
2021/08/05 00:57:03;;;;;;;6.30;5.80;;;;;;;14.01;100.00;97603.16;5099849;28;20229;-77
2021/08/05 00:59:31;;;;;;;5.50;5.10;;;;;;;14.03;100.00;97604.63;5098649;28;20683;-78
2021/08/05 01:02:02;;;;;;;5.50;5.10;;;;;;;13.93;100.00;97596.13;5098779;28;20190;-77
2021/08/05 01:04:32;;;;;;;5.00;4.70;;;;;;;13.94;100.00;97589.78;5102085;27;20253;-78
2021/08/05 01:07:06;;;;;;;6.00;5.43;;;;;;;13.95;100.00;97587.97;5103840;28;20353;-78
2021/08/05 01:09:37;;;;;;;5.50;5.10;;;;;;;13.97;100.00;97588.59;5102084;28;20716;-78
2021/08/05 01:12:13;;;;;;;5.53;5.13;;;;;;;13.94;100.00;97583.66;5101096;28;20221;-78
2021/08/05 01:14:42;;;;;;;6.17;5.57;;;;;;;13.94;100.00;97586.31;5099152;28;20201;-77
2021/08/05 01:17:11;;;;;;;5.90;5.40;;;;;;;13.96;100.00;97581.63;5103213;28;20214;-78
2021/08/05 01:19:43;;;;;;;5.93;5.43;;;;;;;13.91;100.00;97578.72;5104166;28;20209;-78
2021/08/05 01:22:16;;;;;;;5.57;5.17;;;;;;;13.86;100.00;97574.81;5102704;28;20610;-78
2021/08/05 01:24:57;;;;;;;6.00;5.50;;;;;;;13.84;100.00;97582.16;5101877;28;20602;-76
2021/08/05 01:27:27;;;;;;;5.80;5.40;;;;;;;13.92;100.00;97580.38;5099548;27;20315;-77
2021/08/05 01:29:55;;;;;;;5.33;4.90;;;;;;;13.93;100.00;97574.81;5103818;27;20216;-78
2021/08/05 01:32:23;;;;;;;6.30;5.70;;;;;;;13.93;100.00;97571.34;5102626;28;20764;-78
2021/08/05 01:34:51;;;;;;;5.43;5.03;;;;;;;13.89;100.00;97571.75;5101900;28;20569;-78
2021/08/05 01:37:19;;;;;;;4.87;4.57;;;;;;;13.88;100.00;97574.59;5103560;28;20225;-78
2021/08/05 01:39:48;;;;;;;5.07;4.67;;;;;;;13.84;100.00;97573.34;5102581;28;20206;-77
2021/08/05 01:42:17;;;;;;;4.97;4.67;;;;;;;13.76;100.00;97568.97;5101687;28;20205;-78
2021/08/05 01:44:49;;;;;;;4.70;4.40;;;;;;;13.87;100.00;97573.78;5100265;28;20205;-78
2021/08/05 01:47:19;;;;;;;4.60;4.30;;;;;;;13.78;100.00;97564.28;5100201;28;20222;-78
2021/08/05 01:49:48;;;;;;;4.27;4.03;;;;;;;13.72;100.00;97565.06;5100562;27;20684;-78
2021/08/05 01:52:18;;;;;;;4.37;3.97;;;;;;;13.71;100.00;97568.75;5104031;28;20383;-77
2021/08/05 01:54:46;;;;;;;4.23;3.93;;;;;;;13.67;100.00;97560.34;5101342;28;20470;-78
2021/08/05 01:57:14;;;;;;;4.63;4.33;;;;;;;13.71;100.00;97560.75;5102941;28;20213;-77
2021/08/05 01:59:42;;;;;;;4.17;3.87;;;;;;;13.67;100.00;97554.19;5102103;28;20221;-78
2021/08/05 02:02:13;;;;;;;5.23;4.83;;;;;;;13.69;100.00;97560.97;5102263;28;20533;-78
2021/08/05 02:05:02;;;;;;;3.87;3.67;;;;;;;13.69;100.00;97554.81;5100450;28;20198;-77
2021/08/05 02:07:33;;;;;;;4.67;4.27;;;;;;;13.69;100.00;97554.81;5102744;28;20233;-78
2021/08/05 02:10:04;;;;;;;4.67;4.30;;;;;;;13.69;100.00;97554.81;5101400;28;20666;-77
2021/08/05 02:12:34;;;;;;;4.60;4.23;;;;;;;13.67;100.00;97563.00;5100547;28;20233;-77
2021/08/05 02:15:05;;;;;;;5.20;4.80;;;;;;;13.68;100.00;97561.16;5098424;28;20209;-77
2021/08/05 02:17:37;;;;;;;5.20;4.83;;;;;;;13.69;100.00;97558.31;5097994;28;20229;-78
2021/08/05 02:20:07;;;;;;;4.73;4.33;;;;;;;13.69;100.00;97554.81;5099466;28;20266;-78
2021/08/05 02:22:35;;;;;;;5.60;5.20;;;;;;;13.75;100.00;97554.03;5102569;28;20213;-78
2021/08/05 02:25:04;;;;;;;5.43;5.03;;;;;;;13.72;100.00;97555.25;5102073;28;20201;-77
2021/08/05 02:27:32;;;;;;;5.50;4.50;;;;;;;13.68;100.00;97551.34;5101094;28;20237;-78
2021/08/05 02:30:00;;;;;;;5.33;4.93;;;;;;;13.69;100.00;97549.47;5101954;28;20201;-78
2021/08/05 02:32:28;;;;;;;5.67;5.33;;;;;;;13.70;100.00;97548.47;5102871;28;20226;-79
2021/08/05 02:35:00;;;;;;;5.00;4.60;;;;;;;13.70;100.00;97543.13;5102478;27;20248;-79
2021/08/05 02:37:28;;;;;;;5.07;4.77;;;;;;;13.67;100.00;97546.19;5101147;28;20232;-79
2021/08/05 02:39:56;;;;;;;6.73;6.13;;;;;;;13.68;100.00;97558.50;5102084;28;20573;-78
2021/08/05 02:42:24;;;;;;;5.73;5.33;;;;;;;13.71;100.00;97550.94;5112258;28;20266;-78
2021/08/05 02:44:52;;;;;;;5.30;4.90;;;;;;;13.78;100.00;97537.66;5113319;27;20212;-78
2021/08/05 02:47:21;;;;;;;6.00;5.60;;;;;;;13.75;100.00;97546.88;5107074;27;20423;-79
2021/08/05 02:49:50;;;;;;;5.93;5.53;;;;;;;13.79;100.00;97549.94;5106369;28;20190;-78
2021/08/05 02:52:20;;;;;;;5.93;5.37;;;;;;;13.77;100.00;97538.66;5107504;27;20528;-79
2021/08/05 02:54:48;;;;;;;6.00;5.60;;;;;;;13.81;100.00;97539.13;5104374;28;20209;-78
2021/08/05 02:57:16;;;;;;;6.53;5.93;;;;;;;13.96;100.00;97546.97;5102678;28;20225;-78
2021/08/05 02:59:44;;;;;;;6.30;5.80;;;;;;;13.78;100.00;97536.84;5104457;28;20581;-78
2021/08/05 03:02:14;;;;;;;5.90;5.50;;;;;;;13.82;100.00;97538.91;5102640;28;20605;-79
2021/08/05 03:04:43;;;;;;;6.80;6.30;;;;;;;13.82;100.00;97538.91;5100769;27;20779;-78
2021/08/05 03:07:11;;;;;;;7.30;6.67;;;;;;;13.79;100.00;97530.50;5101331;28;20213;-79
2021/08/05 03:09:41;;;;;;;7.17;5.97;;;;;;;13.82;100.00;97536.25;5099959;28;20202;-79
2021/08/05 03:12:09;;;;;;;5.87;5.47;;;;;;;13.72;100.00;97517.97;5101656;28;20228;-78
2021/08/05 03:14:37;;;;;;;6.40;5.97;;;;;;;13.74;100.00;97518.59;5097782;28;20202;-78
2021/08/05 03:17:05;;;;;;;6.13;5.63;;;;;;;13.77;100.00;97519.22;5101232;28;20581;-79
2021/08/05 03:19:33;;;;;;;5.90;5.40;;;;;;;13.77;100.00;97514.69;5101254;28;20209;-79
2021/08/05 03:22:01;;;;;;;6.60;6.10;;;;;;;13.77;100.00;97514.69;5098598;28;20197;-79
2021/08/05 03:24:29;;;;;;;7.17;6.47;;;;;;;13.75;100.00;97520.25;5100481;28;20197;-79
2021/08/05 03:26:58;;;;;;;5.63;5.23;;;;;;;13.75;100.00;97520.25;5100874;28;20309;-79
2021/08/05 03:29:26;;;;;;;6.60;6.20;;;;;;;13.75;100.00;97508.75;5101958;28;20216;-79
2021/08/05 03:31:54;;;;;;;5.90;5.47;;;;;;;13.86;100.00;97512.72;5102653;28;20289;-79
2021/08/05 03:34:22;;;;;;;6.27;5.77;;;;;;;13.85;100.00;97517.22;5099008;28;20209;-78
2021/08/05 03:36:50;;;;;;;6.40;5.90;;;;;;;13.83;100.00;97507.78;5100501;28;20208;-79
2021/08/05 03:39:18;;;;;;;7.00;6.50;;;;;;;13.75;100.00;97514.06;5100838;27;20557;-79
2021/08/05 03:41:46;;;;;;;6.70;6.20;;;;;;;13.72;100.00;97507.31;5097725;28;20198;-79
2021/08/05 03:44:15;;;;;;;6.63;5.80;;;;;;;13.73;100.00;97513.44;5101091;28;20205;-79
2021/08/05 03:46:44;;;;;;;6.83;6.23;;;;;;;13.73;100.00;97514.28;5103375;27;20205;-79
2021/08/05 03:49:12;;;;;;;7.53;6.77;;;;;;;13.76;100.00;97513.06;5112590;28;20194;-78
2021/08/05 03:51:39;;;;;;;7.53;6.80;;;;;;;13.72;100.00;97509.97;5100196;27;20202;-79
2021/08/05 03:54:08;;;;;;;7.07;6.50;;;;;;;13.74;100.00;97504.44;5098970;27;20221;-79
2021/08/05 03:56:35;;;;;;;7.27;6.57;;;;;;;13.78;100.00;97507.56;5099775;28;20711;-79
2021/08/05 03:59:04;;;;;;;7.50;6.37;;;;;;;13.75;100.00;97516.75;5097739;28;20225;-79
2021/08/05 04:01:33;;;;;;;7.17;6.57;;;;;;;13.72;100.00;97515.31;5094197;28;20597;-79
2021/08/05 04:04:01;;;;;;;7.17;6.67;;;;;;;13.78;100.00;97515.53;5100251;28;20288;-78
2021/08/05 04:06:29;;;;;;;7.30;6.80;;;;;;;13.77;100.00;97511.22;5099591;27;20217;-79
2021/08/05 04:08:58;;;;;;;7.60;7.00;;;;;;;13.80;100.00;97514.31;5100749;28;20225;-78
2021/08/05 04:11:26;;;;;;;7.80;7.30;;;;;;;13.75;100.00;97514.91;5097752;27;20511;-79
2021/08/05 04:13:54;;;;;;;6.93;6.43;;;;;;;13.75;100.00;97509.59;5098304;27;20248;-78
2021/08/05 04:16:22;;;;;;;6.97;6.43;;;;;;;13.82;100.00;97506.13;5097988;28;20297;-78
2021/08/05 04:18:51;;;;;;;7.20;6.70;;;;;;;13.77;100.00;97520.03;5097736;28;20623;-78
2021/08/05 04:21:19;;;;;;;7.20;6.57;;;;;;;13.82;100.00;97520.25;5097451;28;20562;-79
2021/08/05 04:23:47;;;;;;;7.77;7.00;;;;;;;13.82;100.00;97519.44;5095441;28;20197;-78
2021/08/05 04:26:15;;;;;;;7.20;6.70;;;;;;;13.81;100.00;97512.47;5100618;28;20440;-78
2021/08/05 04:28:43;;;;;;;6.87;6.37;;;;;;;13.81;100.00;97515.94;5101740;28;20228;-78
2021/08/05 04:31:11;;;;;;;7.40;6.70;;;;;;;13.86;100.00;97513.53;5101260;27;20218;-78
2021/08/05 04:33:39;;;;;;;7.20;6.70;;;;;;;13.86;100.00;97520.69;5100443;28;20263;-78
2021/08/05 04:36:08;;;;;;;7.50;6.90;;;;;;;13.82;100.00;97516.78;5101172;28;20208;-77
2021/08/05 04:38:36;;;;;;;7.63;7.03;;;;;;;13.80;100.00;97521.50;5101497;28;20236;-78
2021/08/05 04:41:04;;;;;;;8.13;7.37;;;;;;;13.78;100.00;97513.69;5100853;28;20201;-78
2021/08/05 04:43:32;;;;;;;7.00;6.50;;;;;;;13.74;100.00;97515.94;5102562;28;20617;-78
2021/08/05 04:46:00;;;;;;;7.50;6.90;;;;;;;13.80;100.00;97524.16;5100241;28;20665;-78
2021/08/05 04:48:28;;;;;;;7.97;7.17;;;;;;;13.84;100.00;97528.91;5101243;28;20708;-78
2021/08/05 04:50:56;;;;;;;7.93;7.23;;;;;;;13.83;100.00;97523.75;5102952;28;20217;-78
2021/08/05 04:53:25;;;;;;;6.80;6.30;;;;;;;13.82;100.00;97528.25;5100940;28;20252;-78
2021/08/05 04:55:53;;;;;;;7.23;6.73;;;;;;;13.80;100.00;97529.47;5101134;28;20227;-79
2021/08/05 04:58:21;;;;;;;7.37;6.87;;;;;;;13.77;100.00;97528.00;5096442;27;20286;-76
2021/08/05 05:00:50;;;;;;;7.23;6.67;;;;;;;13.88;100.00;97527.50;5100977;28;20214;-78
2021/08/05 05:03:18;;;;;;;7.80;7.10;;;;;;;13.94;100.00;97525.84;5100051;28;20285;-78
2021/08/05 05:05:46;;;;;;;7.37;6.87;;;;;;;14.02;100.00;97522.22;5098552;28;20290;-78
2021/08/05 05:08:16;;;;;;;8.00;7.23;;;;;;;14.02;100.00;97522.22;5097113;28;20720;-68
2021/08/05 05:10:46;;;;;;;8.03;7.30;;;;;;;14.32;100.00;97508.63;5100640;28;20468;-69
2021/08/05 05:13:14;;;;;;;6.97;6.33;;;;;;;14.27;100.00;97511.06;5100081;28;20668;-68
2021/08/05 05:15:42;;;;;;;6.80;6.30;;;;;;;14.21;100.00;97514.53;5099360;28;20250;-68
2021/08/05 05:18:11;;;;;;;6.73;6.13;;;;;;;14.13;100.00;97513.66;5099612;28;20612;-70
2021/08/05 05:20:39;;;;;;;6.60;6.00;;;;;;;14.07;100.00;97503.00;5099438;28;20221;-71
2021/08/05 05:23:08;;;;;;;7.33;6.73;;;;;;;14.05;100.00;97505.84;5099712;28;20447;-70
2021/08/05 05:25:37;;;;;;;6.57;6.07;;;;;;;13.98;100.00;97505.00;5098997;28;20202;-70
2021/08/05 05:28:08;;;;;;;6.90;6.40;;;;;;;14.16;100.00;97499.94;5095707;28;20230;-76
2021/08/05 05:30:36;;;;;;;6.97;6.27;;;;;;;14.16;100.00;97505.25;5097248;28;20512;-74
2021/08/05 05:33:05;;;;;;;6.83;6.20;;;;;;;14.18;100.00;97502.41;5097448;28;20254;-80
2021/08/05 05:35:33;;;;;;;7.73;7.03;;;;;;;14.12;100.00;97497.88;5097511;28;20209;-76
2021/08/05 05:38:01;;;;;;;13.43;6.63;;;;;;;14.06;100.00;97512.00;5099007;28;20234;-72
2021/08/05 05:40:30;;;;;;;7.30;6.77;;;;;;;14.11;100.00;97504.22;5100868;28;20743;-75
2021/08/05 05:43:00;;;;;;;8.70;7.20;;;;;;;14.05;100.00;97503.16;5098455;28;20206;-77
2021/08/05 05:45:30;;;;;;;6.97;6.53;;;;;;;14.17;100.00;97501.56;5097259;28;20205;-76
2021/08/05 05:48:00;;;;;;;7.33;6.73;;;;;;;14.37;100.00;97508.81;5098285;28;20309;-76
2021/08/05 05:50:29;;;;;;;7.43;6.90;;;;;;;14.38;100.00;97506.97;5099153;28;20711;-75
2021/08/05 05:52:57;;;;;;;7.40;6.83;;;;;;;14.30;100.00;97508.00;5103282;27;20227;-74
2021/08/05 05:55:26;;;;;;;8.80;6.83;;;;;;;14.25;100.00;97513.91;5100081;27;20320;-78
2021/08/05 05:57:54;;;;;;;8.20;7.40;;;;;;;14.31;100.00;97504.31;5101434;28;20226;-76
2021/08/05 06:00:22;;;;;;;7.73;7.17;;;;;;;14.40;100.00;97497.75;5101059;28;20241;-79
2021/08/05 06:02:51;;;;;;;6.67;6.17;;;;;;;14.44;100.00;97499.00;5102344;28;20597;-76
2021/08/05 06:05:19;;;;;;;8.13;7.00;;;;;;;14.51;100.00;97503.53;5101872;27;20193;-74
2021/08/05 06:07:48;;;;;;;7.60;7.00;;;;;;;14.61;100.00;97503.97;5100559;28;20225;-76
2021/08/05 06:10:19;;;;;;;7.63;6.83;;;;;;;14.70;100.00;97501.91;5102175;28;20208;-75
2021/08/05 06:12:48;;;;;;;7.07;6.57;;;;;;;14.74;100.00;97500.53;5102148;28;20212;-76
2021/08/05 06:15:16;;;;;;;7.17;6.47;;;;;;;14.82;100.00;97504.84;5101485;28;20229;-77
2021/08/05 06:17:45;;;;;;;6.90;6.30;;;;;;;14.84;100.00;97498.31;5102185;27;20612;-76
2021/08/05 06:20:18;;;;;;;7.77;7.17;;;;;;;15.06;100.00;97498.09;5103216;28;20699;-75
2021/08/05 06:22:48;;;;;;;7.27;6.60;;;;;;;15.35;100.00;97498.69;5101591;28;20198;-76
2021/08/05 06:25:16;;;;;;;6.80;6.30;;;;;;;15.30;100.00;97501.97;5100264;28;20451;-76
2021/08/05 06:27:44;;;;;;;6.00;5.60;;;;;;;15.31;100.00;97508.16;5102703;27;20243;-75
2021/08/05 06:30:14;;;;;;;6.90;6.20;;;;;;;15.17;100.00;97504.66;5101102;28;20233;-73
2021/08/05 06:32:42;;;;;;;7.23;6.53;;;;;;;15.07;100.00;97499.72;5102571;27;20213;-78
2021/08/05 06:35:11;;;;;;;8.57;7.87;;;;;;;15.06;100.00;97495.41;5098483;28;20249;-76
2021/08/05 06:37:40;;;;;;;6.83;6.33;;;;;;;15.03;100.00;97504.69;5098054;28;20627;-77
2021/08/05 06:40:09;;;;;;;7.87;7.07;;;;;;;15.19;100.00;97505.28;5101728;28;20198;-75
2021/08/05 06:42:37;;;;;;;8.10;7.40;;;;;;;15.22;100.00;97512.06;5100331;28;20210;-75
2021/08/05 06:45:07;;;;;;;7.43;6.73;;;;;;;15.28;100.00;97513.91;5103343;27;20210;-75
2021/08/05 06:47:35;;;;;;;7.70;7.00;;;;;;;15.21;100.00;97513.91;5099775;28;20229;-77
2021/08/05 06:50:03;;;;;;;9.93;7.13;;;;;;;15.27;100.00;97509.59;5100244;28;20562;-76
2021/08/05 06:52:31;;;;;;;9.17;6.97;;;;;;;15.47;100.00;97517.59;5097405;28;20209;-75
2021/08/05 06:55:00;;;;;;;8.27;7.47;;;;;;;15.29;100.00;97511.03;5104560;28;20225;-79
2021/08/05 06:57:28;;;;;;;8.17;7.47;;;;;;;15.29;100.00;97510.22;5104853;28;20225;-77
2021/08/05 06:59:58;;;;;;;7.83;7.13;;;;;;;15.43;100.00;97503.00;5101062;27;20220;-76
2021/08/05 07:02:26;;;;;;;8.27;7.57;;;;;;;15.57;100.00;97509.16;5102561;27;20201;-78
2021/08/05 07:04:54;;;;;;;9.20;7.90;;;;;;;15.65;100.00;97508.09;5103808;27;20281;-78
2021/08/05 07:07:22;;;;;;;7.77;7.07;;;;;;;15.88;100.00;97505.00;5102082;27;20229;-75
2021/08/05 07:09:50;;;;;;;7.97;7.30;;;;;;;15.91;100.00;97508.06;5106964;27;20232;-80
2021/08/05 07:12:19;;;;;;;7.57;6.87;;;;;;;15.89;100.00;97512.81;5102871;27;20224;-80
2021/08/05 07:14:47;;;;;;;7.23;6.67;;;;;;;15.94;100.00;97511.34;5101335;28;20221;-76
2021/08/05 07:17:16;;;;;;;7.23;6.73;;;;;;;15.70;100.00;97502.94;5102860;28;20224;-77
2021/08/05 07:19:44;;;;;;;7.10;6.50;;;;;;;15.75;100.00;97511.19;5099083;28;20641;-74
2021/08/05 07:22:12;;;;;;;6.73;6.23;;;;;;;15.76;100.00;97505.63;5104811;27;20204;-79
2021/08/05 07:24:40;;;;;;;7.37;6.77;;;;;;;15.86;100.00;97504.34;5101369;28;20206;-75
2021/08/05 07:27:09;;;;;;;7.17;6.67;;;;;;;15.84;100.00;97504.56;5100747;27;20224;-75
2021/08/05 07:29:38;;;;;;;7.70;7.10;;;;;;;15.84;100.00;97507.25;5104323;27;20685;-74
2021/08/05 07:32:07;;;;;;;6.70;6.20;;;;;;;15.91;100.00;97502.72;5107000;27;20679;-75
2021/08/05 07:34:36;;;;;;;6.97;6.37;;;;;;;15.86;100.00;97499.84;5100292;28;20787;-73
2021/08/05 07:37:04;;;;;;;6.57;6.07;;;;;;;15.97;100.00;97502.91;5096014;27;20316;-74
2021/08/05 07:39:32;;;;;;;6.23;5.83;;;;;;;15.95;100.00;97496.97;5104970;27;20210;-75
2021/08/05 07:42:00;;;;;;;6.97;6.47;;;;;;;16.06;100.00;97513.16;5101998;27;20213;-73
2021/08/05 07:44:28;;;;;;;6.20;5.60;;;;;;;15.95;100.00;97510.31;5099802;28;20205;-73
2021/08/05 07:46:58;;;;;;;7.33;6.70;;;;;;;16.01;100.00;97501.47;5100597;28;20213;-73
2021/08/05 07:49:26;;;;;;;6.87;6.27;;;;;;;16.21;100.00;97506.72;5101115;28;20221;-72
2021/08/05 07:51:54;;;;;;;6.23;5.73;;;;;;;16.18;100.00;97501.81;5100569;28;20205;-72
2021/08/05 07:54:23;;;;;;;6.30;5.80;;;;;;;16.28;100.00;97502.16;5099548;28;20523;-73
2021/08/05 07:56:50;;;;;;;6.37;5.87;;;;;;;16.28;100.00;97504.84;5100432;28;20677;-73
2021/08/05 07:59:18;;;;;;;5.63;5.20;;;;;;;16.54;100.00;97497.72;5098126;28;20717;-72
2021/08/05 08:01:46;;;;;;;7.13;5.60;;;;;;;16.51;100.00;97497.34;5100611;28;20201;-73
2021/08/05 08:04:16;;;;;;;6.07;5.67;;;;;;;16.36;100.00;97493.09;5099042;27;20282;-73
2021/08/05 08:06:44;;;;;;;7.37;6.67;;;;;;;16.48;100.00;97487.88;5099613;28;20216;-73
2021/08/05 08:09:12;;;;;;;6.67;6.17;;;;;;;16.47;100.00;97492.41;5098027;28;20909;-72
2021/08/05 08:11:40;;;;;;;5.97;5.57;;;;;;;16.48;100.00;97480.69;5098660;28;21519;-74
2021/08/05 08:14:08;;;;;;;6.10;5.60;;;;;;;16.60;100.00;97488.81;5100549;28;20607;-74
2021/08/05 08:16:39;;;;;;;5.80;5.40;;;;;;;16.92;100.00;97490.69;5099987;28;20233;-73
2021/08/05 08:19:08;;;;;;;8.53;5.57;;;;;;;16.68;100.00;97493.13;5097246;28;20691;-72
2021/08/05 08:21:37;;;;;;;5.40;5.00;;;;;;;16.74;100.00;97492.25;5100572;28;20201;-71
2021/08/05 08:24:07;;;;;;;5.77;5.37;;;;;;;16.62;100.00;97499.31;5097198;28;20212;-71
2021/08/05 08:26:35;;;;;;;5.27;4.93;;;;;;;16.67;100.00;97496.81;5099677;28;20737;-71
2021/08/05 08:29:03;;;;;;;5.53;5.17;;;;;;;16.68;100.00;97500.34;5097210;27;20225;-71
2021/08/05 08:31:31;;;;;;;5.43;5.00;;;;;;;16.73;100.00;97495.16;5097755;28;20670;-71
2021/08/05 08:33:59;;;;;;;5.07;4.77;;;;;;;16.83;100.00;97492.81;5100322;28;20201;-70
2021/08/05 08:36:27;;;;;;;5.20;4.80;;;;;;;17.01;100.00;97488.59;5099847;27;20323;-73
2021/08/05 08:38:58;;;;;;;5.30;4.90;;;;;;;17.16;100.00;97482.91;5098886;28;20221;-71
2021/08/05 08:41:28;;;;;;;5.47;5.07;;;;;;;17.36;100.00;97482.72;5097441;28;20622;-72
2021/08/05 08:43:56;;;;;;;6.30;5.57;;;;;;;17.54;100.00;97484.63;5097632;28;20524;-72
2021/08/05 08:46:25;;;;;;;6.03;5.50;;;;;;;17.84;100.00;97480.41;5098541;28;20220;-72
2021/08/05 08:48:54;;;;;;;5.83;5.43;;;;;;;18.06;100.00;97478.13;5101468;28;20217;-73
2021/08/05 08:51:22;;;;;;;8.17;6.27;;;;;;;18.14;98.82;97475.13;5099174;28;20493;-74
2021/08/05 08:53:52;;;;;;;6.23;5.80;;;;;;;18.35;96.93;97486.41;5098480;28;20213;-71
2021/08/05 08:56:23;;;;;;;6.53;6.10;;;;;;;18.39;99.19;97481.41;5100640;28;20231;-73
2021/08/05 08:58:51;;;;;;;6.33;5.83;;;;;;;18.59;95.81;97473.09;5094769;28;20240;-72
2021/08/05 09:01:19;;;;;;;6.27;5.77;;;;;;;18.71;95.68;97481.97;5100153;28;20214;-71
2021/08/05 09:03:47;;;;;;;6.90;6.50;;;;;;;18.77;92.40;97483.75;5098853;28;20265;-74
2021/08/05 09:06:15;;;;;;;6.47;5.87;;;;;;;18.63;94.13;97476.94;5099221;28;20204;-74
2021/08/05 09:08:43;;;;;;;5.90;5.50;;;;;;;18.91;94.47;97484.34;5100246;28;20229;-72
2021/08/05 09:11:11;;;;;;;6.60;6.10;;;;;;;19.08;89.02;97483.72;5097636;28;20563;-73
2021/08/05 09:13:41;;;;;;;6.77;6.17;;;;;;;19.21;87.28;97474.63;5099688;28;20202;-67
2021/08/05 09:16:20;;;;;;;6.70;6.17;;;;;;;18.79;86.09;97473.63;5099791;28;20226;-67
2021/08/05 09:18:49;;;;;;;6.90;6.40;;;;;;;18.66;90.01;97463.91;5098684;28;20225;-68
2021/08/05 09:21:18;;;;;;;7.47;6.87;;;;;;;18.79;85.33;97472.78;5099513;28;20601;-67
2021/08/05 09:23:54;;;;;;;6.53;6.03;;;;;;;18.67;87.09;97472.75;5095303;28;20203;-67
2021/08/05 09:26:27;;;;;;;6.40;6.00;;;;;;;18.84;86.72;97469.41;5101641;28;20205;-67
2021/08/05 09:29:02;;;;;;;7.13;6.50;;;;;;;19.22;83.49;97465.53;5098598;28;20608;-67
2021/08/05 09:31:31;;;;;;;7.17;6.47;;;;;;;19.04;83.07;97461.06;5102741;28;20209;-67
2021/08/05 09:34:04;;;;;;;6.10;5.70;;;;;;;19.08;82.08;97457.69;5101543;28;20405;-69
2021/08/05 09:36:32;;;;;;;5.93;5.43;;;;;;;18.97;83.51;97460.34;5102400;28;20225;-68
2021/08/05 09:39:01;;;;;;;5.80;5.40;;;;;;;19.32;78.43;97459.56;5103963;28;20414;-68
2021/08/05 09:41:29;;;;;;;4.97;4.67;;;;;;;19.59;76.33;97451.84;5098049;28;20193;-66
2021/08/05 09:44:04;;;;;;;4.80;4.47;;;;;;;19.98;77.78;97447.81;5104028;27;20202;-68
2021/08/05 09:46:33;;;;;;;4.93;4.63;;;;;;;20.37;73.99;97456.91;5099772;28;20600;-66
2021/08/05 09:49:01;;;;;;;6.47;5.30;;;;;;;20.35;72.91;97447.47;5100573;28;20222;-67
2021/08/05 09:51:29;;;;;;;4.90;4.60;;;;;;;20.84;72.30;97444.31;5105336;27;20752;-68
2021/08/05 09:54:02;;;;;;;4.87;4.57;;;;;;;20.73;68.19;97443.28;5097635;28;20209;-68
2021/08/05 09:56:32;;;;;;;4.20;3.80;;;;;;;20.68;65.10;97444.00;5101856;28;20244;-67
2021/08/05 09:59:06;;;;;;;3.93;3.73;;;;;;;20.52;66.17;97440.22;5103271;28;20259;-67
2021/08/05 10:01:35;;;;;;;4.37;4.07;;;;;;;20.17;66.28;97446.56;5101565;28;20868;-67
2021/08/05 10:04:26;;;;;;;4.47;4.10;;;;;;;19.45;70.43;97443.22;5099932;28;20202;-68
2021/08/05 10:06:59;;;;;;;5.00;4.57;;;;;;;19.16;74.00;97453.84;5102178;28;20205;-67
2021/08/05 10:09:27;;;;;;;4.10;3.80;;;;;;;19.21;77.51;97445.09;5099724;27;20581;-67
2021/08/05 10:12:09;;;;;;;4.70;3.83;;;;;;;19.19;78.15;97448.00;5103184;28;20243;-69
2021/08/05 10:14:39;;;;;;;4.60;4.20;;;;;;;19.45;75.75;97440.53;5102097;28;20248;-67
2021/08/05 10:17:09;;;;;;;3.57;3.40;;;;;;;19.33;77.15;97435.16;5102022;28;20725;-66
2021/08/05 10:19:39;;;;;;;3.27;3.07;;;;;;;19.49;75.87;97446.22;5098591;27;20210;-67
2021/08/05 10:22:08;;;;;;;3.83;3.60;;;;;;;19.47;75.66;97434.91;5102732;27;20202;-68
2021/08/05 10:24:38;;;;;;;4.43;4.13;;;;;;;19.78;71.95;97436.38;5099879;28;20520;-67
2021/08/05 10:27:08;;;;;;;4.27;3.97;;;;;;;19.73;72.12;97428.22;5100527;28;20233;-67
2021/08/05 10:29:36;;;;;;;4.63;4.20;;;;;;;19.78;71.69;97427.50;5102279;28;20206;-67
2021/08/05 10:32:07;;;;;;;3.83;3.53;;;;;;;19.87;72.17;97425.25;5098009;28;20259;-66
2021/08/05 10:34:37;;;;;;;3.87;3.67;;;;;;;19.99;72.19;97422.56;5100200;28;20210;-69
2021/08/05 10:37:07;;;;;;;4.73;4.37;;;;;;;20.06;73.47;97424.03;5098217;28;20229;-67
2021/08/05 10:39:35;;;;;;;4.90;4.57;;;;;;;20.60;71.57;97413.97;5102979;27;20774;-67
2021/08/05 10:42:09;;;;;;;4.67;4.37;;;;;;;21.11;72.34;97414.81;5100180;27;20577;-68
2021/08/05 10:44:38;;;;;;;4.53;4.13;;;;;;;20.94;69.01;97405.94;5101217;28;20209;-68
2021/08/05 10:47:09;;;;;;;4.43;4.03;;;;;;;20.74;71.24;97407.22;5098515;28;20218;-68
2021/08/05 10:49:37;;;;;;;7.30;4.07;;;;;;;20.57;72.92;97406.38;5099715;28;20206;-67
2021/08/05 10:52:06;;;;;;;3.90;3.60;;;;;;;20.24;72.13;97406.91;5100660;28;20198;-67
2021/08/05 10:54:52;;;;;;;4.47;4.07;;;;;;;20.17;69.76;97417.00;5098735;28;20201;-67
2021/08/05 10:57:22;;;;;;;4.10;3.90;;;;;;;19.74;71.61;97411.03;5101049;28;20222;-68
2021/08/05 11:00:01;;;;;;;4.70;4.40;;;;;;;19.96;68.60;97418.47;5102133;27;20748;-68
2021/08/05 11:02:49;;;;;;;4.50;4.30;;;;;;;19.47;73.32;97408.03;5101594;28;20235;-67
2021/08/05 11:05:40;;;;;;;4.67;4.27;;;;;;;19.41;77.66;97400.91;5099548;28;20681;-67
2021/08/05 11:08:28;;;;;;;4.40;4.00;;;;;;;19.18;78.45;97407.97;5096132;27;20227;-66
2021/08/05 11:11:33;;;;;;;4.30;4.00;;;;;;;19.03;82.19;97406.53;5092139;28;20285;-69
2021/08/05 11:14:37;;;;;;;4.73;4.20;;;;;;;19.19;84.44;97413.09;5097380;28;20208;-69
2021/08/05 11:17:06;;;;;;;5.43;4.17;;;;;;;18.79;94.18;97406.50;5098595;28;20225;-69
2021/08/05 11:19:38;;;;;;;5.60;5.20;;;;;;;18.26;98.76;97407.31;5101651;28;20672;-68
2021/08/05 11:22:48;;;;;;;10.50;6.00;;;;;;;17.64;100.00;97401.06;5096633;28;20709;-68
2021/08/05 11:25:16;;;;;;;4.77;4.47;;;;;;;17.39;100.00;97399.25;5100692;27;20206;-68
2021/08/05 11:28:18;;;;;;;5.00;4.60;;;;;;;17.42;100.00;97403.38;5098160;27;20222;-69
2021/08/05 11:30:47;;;;;;;5.53;5.13;;;;;;;17.53;100.00;97402.63;5100415;27;20363;-68
2021/08/05 11:33:49;;;;;;;4.70;4.40;;;;;;;17.85;100.00;97397.09;5101689;28;20213;-67
2021/08/05 11:36:24;;;;;;;5.40;4.93;;;;;;;17.96;100.00;97382.09;5099341;28;20204;-69
2021/08/05 11:38:57;;;;;;;6.00;5.40;;;;;;;18.04;100.00;97389.84;5100334;28;20220;-69